createdAt,value
2017-09-03T00:00:32.477Z,9.88
2017-09-03T00:03:00.201Z,9.96
2017-09-03T00:05:27.954Z,9.86
2017-09-03T00:07:55.706Z,9.73
2017-09-03T00:10:23.386Z,9.73
2017-09-03T00:12:51.078Z,9.77
2017-09-03T00:15:18.937Z,9.71
2017-09-03T00:17:46.620Z,9.67
2017-09-03T00:20:14.358Z,9.69
2017-09-03T00:22:42.188Z,9.79
2017-09-03T00:25:09.904Z,9.81
2017-09-03T00:27:37.631Z,9.84
2017-09-03T00:30:05.399Z,9.85
2017-09-03T00:32:33.111Z,9.87
2017-09-03T00:35:00.899Z,9.94
2017-09-03T00:37:28.570Z,9.88
2017-09-03T00:39:56.311Z,9.94
2017-09-03T00:42:24.019Z,9.94
2017-09-03T00:44:51.727Z,9.82
2017-09-03T00:47:19.461Z,9.84
2017-09-03T00:49:47.242Z,9.75
2017-09-03T00:52:14.969Z,9.67
2017-09-03T00:54:42.780Z,9.67
2017-09-03T00:57:10.498Z,9.71
2017-09-03T00:59:38.241Z,9.64
2017-09-03T01:02:05.922Z,9.62
2017-09-03T01:04:33.672Z,9.62
2017-09-03T01:07:01.459Z,9.65
2017-09-03T01:09:29.182Z,9.54
2017-09-03T01:11:57.604Z,9.62
2017-09-03T01:14:25.456Z,9.63
2017-09-03T01:16:53.152Z,9.47
2017-09-03T01:19:21.035Z,9.58
2017-09-03T01:21:48.795Z,9.47
2017-09-03T01:24:16.517Z,9.48
2017-09-03T01:26:44.288Z,9.49
2017-09-03T01:29:12.069Z,9.42
2017-09-03T01:31:39.774Z,9.49
2017-09-03T01:34:07.508Z,9.42
2017-09-03T01:36:35.241Z,9.45
2017-09-03T01:39:02.989Z,9.44
2017-09-03T01:41:30.679Z,9.44
2017-09-03T01:43:58.418Z,9.39
2017-09-03T01:46:26.129Z,9.40
2017-09-03T01:48:53.879Z,9.48
2017-09-03T01:51:21.561Z,9.48
2017-09-03T01:53:49.383Z,9.59
2017-09-03T01:56:17.108Z,9.57
2017-09-03T01:58:44.861Z,9.62
2017-09-03T02:01:12.552Z,9.48
2017-09-03T02:03:40.286Z,9.49
2017-09-03T02:06:08.082Z,9.35
2017-09-03T02:08:35.773Z,9.31
2017-09-03T02:11:03.496Z,9.38
2017-09-03T02:13:31.190Z,9.43
2017-09-03T02:15:59.077Z,9.36
2017-09-03T02:18:26.739Z,9.47
2017-09-03T02:20:54.426Z,9.45
2017-09-03T02:23:22.136Z,9.44
2017-09-03T02:25:49.835Z,9.50
2017-09-03T02:28:17.619Z,9.37
2017-09-03T02:30:45.336Z,9.45
2017-09-03T02:33:13.098Z,9.37
2017-09-03T02:35:40.903Z,9.46
2017-09-03T02:38:08.580Z,9.46
2017-09-03T02:40:36.340Z,9.42
2017-09-03T02:43:04.026Z,9.49
2017-09-03T02:45:31.710Z,9.35
2017-09-03T02:47:59.453Z,9.39
2017-09-03T02:50:27.239Z,9.45
2017-09-03T02:52:54.973Z,9.41
2017-09-03T02:55:22.764Z,9.49
2017-09-03T02:57:50.455Z,9.52
2017-09-03T03:00:18.258Z,9.45
2017-09-03T03:02:45.948Z,9.33
2017-09-03T03:05:13.645Z,9.34
2017-09-03T03:07:42.300Z,9.35
2017-09-03T03:10:10.052Z,9.46
2017-09-03T03:12:37.787Z,9.43
2017-09-03T03:15:05.470Z,9.32
2017-09-03T03:17:33.145Z,9.36
2017-09-03T03:20:00.935Z,9.26
2017-09-03T03:22:28.648Z,9.36
2017-09-03T03:24:56.346Z,9.34
2017-09-03T03:27:24.160Z,9.28
2017-09-03T03:29:51.966Z,9.29
2017-09-03T03:32:19.670Z,9.32
2017-09-03T03:34:47.381Z,9.24
2017-09-03T03:37:15.244Z,9.27
2017-09-03T03:39:43.024Z,9.24
2017-09-03T03:42:10.751Z,9.21
2017-09-03T03:44:38.425Z,9.27
2017-09-03T03:47:06.144Z,9.28
2017-09-03T03:49:33.853Z,9.36
2017-09-03T03:52:01.548Z,9.25
2017-09-03T03:54:29.287Z,9.32
2017-09-03T03:56:56.975Z,9.27
2017-09-03T03:59:24.676Z,9.32
2017-09-03T04:01:52.421Z,9.32
2017-09-03T04:04:20.104Z,9.44
2017-09-03T04:06:47.858Z,9.44
2017-09-03T04:09:15.584Z,9.46
2017-09-03T04:11:43.298Z,9.44
2017-09-03T04:14:10.995Z,9.49
2017-09-03T04:16:38.717Z,9.44
2017-09-03T04:19:06.440Z,9.32
2017-09-03T04:21:34.238Z,9.37
2017-09-03T04:24:01.914Z,9.48
2017-09-03T04:26:29.645Z,9.53
2017-09-03T04:28:57.371Z,9.47
2017-09-03T04:31:25.706Z,9.59
2017-09-03T04:33:53.438Z,9.52
2017-09-03T04:36:21.486Z,9.57
2017-09-03T04:38:49.224Z,9.55
2017-09-03T04:41:16.941Z,9.66
2017-09-03T04:43:44.709Z,9.67
2017-09-03T04:46:12.417Z,9.66
2017-09-03T04:48:40.149Z,9.64
2017-09-03T04:51:07.830Z,9.64
2017-09-03T04:53:35.550Z,9.67
2017-09-03T04:56:03.302Z,9.57
2017-09-03T04:58:31.064Z,9.54
2017-09-03T05:00:58.829Z,9.62
2017-09-03T05:03:26.535Z,9.63
2017-09-03T05:05:54.237Z,9.67
2017-09-03T05:08:21.965Z,9.62
2017-09-03T05:10:49.868Z,9.66
2017-09-03T05:13:17.587Z,9.69
2017-09-03T05:15:45.281Z,9.72
2017-09-03T05:18:13.059Z,9.76
2017-09-03T05:20:40.799Z,9.64
2017-09-03T05:23:08.527Z,9.52
2017-09-03T05:25:36.251Z,9.57
2017-09-03T05:28:03.957Z,9.63
2017-09-03T05:30:31.699Z,9.64
2017-09-03T05:32:59.430Z,9.72
2017-09-03T05:35:27.193Z,9.60
2017-09-03T05:37:54.905Z,9.48
2017-09-03T05:40:23.296Z,9.59
2017-09-03T05:42:52.406Z,9.65
2017-09-03T05:45:20.127Z,9.63
2017-09-03T05:47:47.830Z,9.63
2017-09-03T05:50:15.588Z,9.73
2017-09-03T05:52:43.315Z,9.69
2017-09-03T05:55:11.000Z,9.62
2017-09-03T05:57:38.740Z,9.65
2017-09-03T06:00:07.125Z,9.69
2017-09-03T06:02:34.838Z,9.61
2017-09-03T06:05:03.104Z,9.64
2017-09-03T06:07:30.828Z,9.68
2017-09-03T06:09:58.611Z,9.73
2017-09-03T06:12:26.378Z,9.75
2017-09-03T06:14:54.093Z,9.78
2017-09-03T06:17:21.850Z,9.74
2017-09-03T06:19:49.540Z,9.71
2017-09-03T06:22:17.267Z,9.82
2017-09-03T06:24:45.045Z,9.83
2017-09-03T06:27:12.767Z,9.93
2017-09-03T06:29:40.474Z,9.99
2017-09-03T06:32:08.202Z,9.67
2017-09-03T06:34:35.894Z,9.85
2017-09-03T06:37:03.593Z,9.93
2017-09-03T06:39:31.486Z,9.93
2017-09-03T06:41:59.194Z,10.11
2017-09-03T06:44:26.954Z,10.22
2017-09-03T06:46:54.674Z,10.16
2017-09-03T06:49:22.389Z,10.06
2017-09-03T06:51:50.174Z,10.16
2017-09-03T06:54:18.653Z,10.28
2017-09-03T06:56:47.149Z,10.41
2017-09-03T06:59:14.900Z,10.36
2017-09-03T07:01:42.596Z,10.26
2017-09-03T07:04:10.445Z,10.08
2017-09-03T07:06:38.129Z,10.22
2017-09-03T07:09:05.831Z,10.31
2017-09-03T07:11:33.633Z,10.26
2017-09-03T07:14:01.335Z,10.17
2017-09-03T07:16:29.113Z,9.97
2017-09-03T07:18:59.438Z,9.91
2017-09-03T07:21:28.371Z,9.99
2017-09-03T07:23:56.233Z,9.97
2017-09-03T07:26:24.948Z,9.90
2017-09-03T07:28:52.715Z,9.90
2017-09-03T07:31:20.411Z,9.92
2017-09-03T07:33:48.152Z,9.87
2017-09-03T07:36:15.943Z,9.86
2017-09-03T07:38:43.666Z,9.96
2017-09-03T07:41:12.302Z,10.08
2017-09-03T07:43:40.076Z,10.04
2017-09-03T07:46:07.798Z,10.10
2017-09-03T07:48:35.538Z,10.17
2017-09-03T07:51:03.279Z,10.30
2017-09-03T07:53:31.030Z,10.06
2017-09-03T07:55:58.872Z,10.21
2017-09-03T07:58:26.597Z,10.23
2017-09-03T08:00:54.282Z,10.16
2017-09-03T08:03:22.033Z,10.24
2017-09-03T08:05:49.844Z,10.08
2017-09-03T08:08:17.633Z,10.13
2017-09-03T08:10:45.343Z,10.28
2017-09-03T08:13:13.087Z,10.37
2017-09-03T08:15:40.831Z,10.48
2017-09-03T08:18:08.597Z,10.39
2017-09-03T08:20:36.378Z,10.57
2017-09-03T08:23:04.097Z,10.63
2017-09-03T08:25:31.825Z,10.61
2017-09-03T08:27:59.586Z,10.61
2017-09-03T08:30:27.432Z,10.65
2017-09-03T08:32:55.197Z,10.36
2017-09-03T08:35:23.014Z,10.47
2017-09-03T08:37:50.867Z,10.66
2017-09-03T08:40:19.374Z,10.74
2017-09-03T08:42:47.183Z,10.80
2017-09-03T08:45:14.988Z,10.68
2017-09-03T08:47:42.811Z,10.83
2017-09-03T08:50:10.605Z,10.90
2017-09-03T08:52:38.385Z,11.02
2017-09-03T08:55:06.283Z,11.10
2017-09-03T08:57:34.113Z,11.19
2017-09-03T09:00:01.855Z,11.16
2017-09-03T09:02:29.654Z,11.30
2017-09-03T09:04:57.419Z,11.24
2017-09-03T09:07:25.124Z,11.28
2017-09-03T09:09:53.102Z,11.53
2017-09-03T09:12:20.787Z,11.43
2017-09-03T09:14:48.563Z,11.35
2017-09-03T09:17:16.325Z,11.31
2017-09-03T09:19:44.081Z,11.31
2017-09-03T09:22:11.872Z,11.28
2017-09-03T09:24:39.833Z,11.45
2017-09-03T09:27:07.656Z,11.58
2017-09-03T09:29:35.504Z,11.50
2017-09-03T09:32:03.825Z,11.32
2017-09-03T09:34:31.580Z,11.19
2017-09-03T09:36:59.351Z,11.34
2017-09-03T09:39:27.705Z,11.48
2017-09-03T09:41:55.547Z,11.55
2017-09-03T09:44:23.290Z,11.65
2017-09-03T09:46:51.168Z,11.74
2017-09-03T09:49:19.844Z,11.79
2017-09-03T09:51:47.702Z,11.83
2017-09-03T09:54:15.560Z,11.76
2017-09-03T09:56:43.302Z,11.94
2017-09-03T09:59:11.080Z,11.95
2017-09-03T10:01:38.853Z,11.96
2017-09-03T10:04:06.592Z,12.08
2017-09-03T10:06:34.334Z,12.14
2017-09-03T10:09:02.109Z,12.22
2017-09-03T10:11:29.817Z,12.08
2017-09-03T10:13:57.606Z,12.27
2017-09-03T10:16:25.378Z,12.38
2017-09-03T10:18:53.145Z,12.37
2017-09-03T10:21:21.078Z,12.32
2017-09-03T10:23:48.915Z,12.47
2017-09-03T10:26:16.618Z,12.32
2017-09-03T10:28:44.381Z,12.03
2017-09-03T10:31:12.108Z,12.18
2017-09-03T10:33:39.816Z,12.42
2017-09-03T10:36:07.642Z,12.42
2017-09-03T10:38:35.357Z,12.65
2017-09-03T10:41:03.059Z,12.63
2017-09-03T10:43:30.814Z,12.83
2017-09-03T10:45:58.507Z,12.57
2017-09-03T10:48:26.297Z,12.72
2017-09-03T10:50:54.101Z,12.45
2017-09-03T10:53:21.801Z,12.57
2017-09-03T10:55:49.580Z,12.67
2017-09-03T10:58:17.495Z,12.83
2017-09-03T11:00:45.214Z,12.66
2017-09-03T11:03:14.141Z,12.44
2017-09-03T11:05:41.968Z,12.59
2017-09-03T11:08:09.683Z,12.58
2017-09-03T11:10:37.440Z,12.75
2017-09-03T11:13:05.512Z,12.81
2017-09-03T11:15:33.508Z,12.96
2017-09-03T11:18:02.031Z,12.57
2017-09-03T11:20:29.901Z,12.70
2017-09-03T11:22:57.621Z,12.54
2017-09-03T11:25:25.341Z,12.78
2017-09-03T11:27:54.692Z,12.65
2017-09-03T11:30:22.434Z,12.71
2017-09-03T11:32:50.241Z,12.76
2017-09-03T11:35:18.016Z,12.63
2017-09-03T11:37:45.812Z,12.69
2017-09-03T11:40:13.619Z,12.86
2017-09-03T11:42:41.413Z,12.80
2017-09-03T11:45:09.179Z,12.76
2017-09-03T11:47:36.928Z,12.90
2017-09-03T11:50:06.797Z,12.90
2017-09-03T11:52:34.489Z,12.98
2017-09-03T11:55:02.249Z,13.02
2017-09-03T11:57:30.207Z,13.32
2017-09-03T11:59:57.933Z,12.89
2017-09-03T12:02:25.920Z,12.96
2017-09-03T12:04:53.636Z,13.00
2017-09-03T12:07:21.417Z,13.20
2017-09-03T12:09:49.197Z,13.11
2017-09-03T12:12:17.376Z,13.09
2017-09-03T12:14:45.115Z,13.01
2017-09-03T12:17:12.865Z,13.16
2017-09-03T12:19:40.644Z,13.22
2017-09-03T12:22:08.646Z,13.07
2017-09-03T12:24:36.999Z,12.80
2017-09-03T12:27:04.791Z,13.03
2017-09-03T12:29:32.538Z,12.92
2017-09-03T12:32:00.265Z,12.96
2017-09-03T12:34:28.159Z,12.98
2017-09-03T12:36:55.979Z,13.04
2017-09-03T12:39:23.720Z,12.98
2017-09-03T12:41:51.462Z,13.16
2017-09-03T12:44:19.228Z,13.21
2017-09-03T12:46:46.997Z,13.46
2017-09-03T12:49:14.752Z,13.57
2017-09-03T12:51:42.488Z,13.53
2017-09-03T12:54:10.194Z,13.80
2017-09-03T12:56:38.000Z,13.93
2017-09-03T12:59:05.720Z,13.96
2017-09-03T13:01:33.593Z,13.83
2017-09-03T13:04:01.421Z,13.69
2017-09-03T13:06:29.342Z,13.90
2017-09-03T13:08:58.095Z,13.71
2017-09-03T13:11:25.894Z,14.13
2017-09-03T13:13:53.703Z,13.87
2017-09-03T13:16:21.625Z,13.59
2017-09-03T13:18:49.405Z,13.49
2017-09-03T13:21:17.269Z,13.88
2017-09-03T13:23:45.176Z,14.02
2017-09-03T13:26:12.963Z,13.81
2017-09-03T13:28:40.847Z,13.93
2017-09-03T13:31:09.694Z,13.92
2017-09-03T13:33:37.439Z,14.06
2017-09-03T13:36:05.248Z,13.75
2017-09-03T13:38:33.058Z,13.64
2017-09-03T13:41:00.861Z,13.81
2017-09-03T13:43:28.565Z,13.73
2017-09-03T13:45:56.327Z,13.50
2017-09-03T13:48:24.111Z,13.80
2017-09-03T13:50:51.841Z,13.66
2017-09-03T13:53:19.596Z,13.74
2017-09-03T13:55:47.435Z,13.94
2017-09-03T13:58:15.202Z,13.77
2017-09-03T14:00:44.895Z,13.72
2017-09-03T14:03:12.882Z,13.59
2017-09-03T14:05:41.574Z,13.72
2017-09-03T14:08:09.391Z,13.86
2017-09-03T14:10:37.179Z,14.03
2017-09-03T14:13:04.904Z,13.92
2017-09-03T14:15:32.668Z,14.02
2017-09-03T14:18:00.504Z,13.86
2017-09-03T14:20:28.323Z,13.93
2017-09-03T14:22:56.068Z,14.19
2017-09-03T14:25:23.847Z,14.32
2017-09-03T14:27:51.722Z,14.39
2017-09-03T14:30:19.513Z,14.36
2017-09-03T14:32:47.196Z,14.54
2017-09-03T14:35:15.061Z,14.48
2017-09-03T14:37:42.803Z,14.28
2017-09-03T14:40:10.578Z,14.23
2017-09-03T14:42:38.446Z,14.10
2017-09-03T14:45:06.344Z,13.93
2017-09-03T14:47:34.175Z,13.95
2017-09-03T14:50:01.943Z,14.19
2017-09-03T14:52:30.783Z,14.18
2017-09-03T14:54:58.537Z,14.16
2017-09-03T14:57:26.268Z,14.27
2017-09-03T14:59:54.020Z,14.30
2017-09-03T15:02:21.836Z,14.47
2017-09-03T15:04:49.676Z,14.36
2017-09-03T15:07:17.540Z,14.24
2017-09-03T15:09:45.314Z,14.14
2017-09-03T15:12:13.078Z,14.07
2017-09-03T15:14:40.811Z,14.00
2017-09-03T15:17:08.561Z,13.87
2017-09-03T15:19:36.499Z,13.73
2017-09-03T15:22:04.325Z,13.74
2017-09-03T15:24:32.160Z,13.72
2017-09-03T15:26:59.973Z,13.58
2017-09-03T15:29:27.724Z,13.69
2017-09-03T15:31:55.500Z,13.58
2017-09-03T15:34:23.540Z,13.54
2017-09-03T15:36:51.264Z,13.57
2017-09-03T15:39:19.295Z,13.57
2017-09-03T15:41:47.217Z,13.55
2017-09-03T15:44:14.961Z,13.30
2017-09-03T15:46:42.793Z,13.40
2017-09-03T15:49:10.556Z,13.25
2017-09-03T15:51:38.320Z,13.19
2017-09-03T15:54:06.199Z,13.16
2017-09-03T15:56:34.032Z,13.20
2017-09-03T15:59:01.774Z,13.22
2017-09-03T16:01:29.522Z,13.10
2017-09-03T16:03:57.298Z,13.05
2017-09-03T16:06:25.042Z,13.04
2017-09-03T16:08:52.837Z,13.04
2017-09-03T16:11:20.610Z,13.04
2017-09-03T16:13:48.337Z,12.98
2017-09-03T16:16:16.107Z,12.85
2017-09-03T16:18:43.897Z,12.59
2017-09-03T16:21:11.615Z,12.74
2017-09-03T16:23:39.723Z,12.74
2017-09-03T16:26:07.506Z,12.72
2017-09-03T16:28:35.264Z,12.58
2017-09-03T16:31:03.093Z,12.59
2017-09-03T16:33:30.845Z,12.55
2017-09-03T16:35:58.756Z,12.48
2017-09-03T16:38:26.489Z,12.65
2017-09-03T16:40:54.220Z,12.52
2017-09-03T16:43:21.964Z,12.43
2017-09-03T16:45:50.181Z,12.39
2017-09-03T16:48:18.083Z,12.43
2017-09-03T16:50:45.883Z,12.43
2017-09-03T16:53:13.745Z,12.39
2017-09-03T16:55:41.669Z,12.37
2017-09-03T16:58:09.561Z,12.39
2017-09-03T17:00:39.478Z,12.14
2017-09-03T17:03:07.255Z,12.20
2017-09-03T17:05:35.157Z,12.35
2017-09-03T17:08:02.991Z,12.33
2017-09-03T17:10:30.807Z,12.15
2017-09-03T17:12:58.639Z,12.17
2017-09-03T17:15:26.423Z,12.12
2017-09-03T17:17:54.541Z,12.07
2017-09-03T17:20:23.023Z,12.17
2017-09-03T17:22:50.836Z,12.25
2017-09-03T17:25:18.760Z,12.22
2017-09-03T17:27:46.529Z,12.21
2017-09-03T17:30:14.932Z,12.29
2017-09-03T17:32:42.800Z,12.28
2017-09-03T17:35:11.440Z,12.22
2017-09-03T17:37:41.079Z,12.41
2017-09-03T17:40:09.347Z,12.36
2017-09-03T17:42:48.863Z,12.25
2017-09-03T17:45:16.636Z,12.11
2017-09-03T17:47:44.374Z,12.18
2017-09-03T17:50:12.185Z,12.12
2017-09-03T17:52:39.976Z,12.03
2017-09-03T17:55:08.650Z,12.03
2017-09-03T17:57:36.587Z,11.99
2017-09-03T18:00:04.631Z,11.96
2017-09-03T18:02:32.572Z,11.98
2017-09-03T18:05:00.500Z,11.93
2017-09-03T18:07:28.388Z,11.76
2017-09-03T18:09:56.241Z,11.70
2017-09-03T18:12:24.085Z,11.72
2017-09-03T18:14:52.047Z,11.68
2017-09-03T18:17:19.914Z,11.61
2017-09-03T18:19:48.188Z,11.57
2017-09-03T18:22:15.960Z,11.68
2017-09-03T18:24:45.961Z,11.60
2017-09-03T18:27:13.802Z,11.52
2017-09-03T18:29:45.476Z,11.45
2017-09-03T18:32:13.765Z,11.37
2017-09-03T18:34:42.374Z,11.51
2017-09-03T18:37:13.130Z,11.50
2017-09-03T18:39:46.451Z,11.39
2017-09-03T18:42:30.983Z,11.33
2017-09-03T18:44:59.357Z,11.33
2017-09-03T18:47:27.277Z,11.28
2017-09-03T18:50:00.654Z,11.28
2017-09-03T18:52:30.724Z,11.06
2017-09-03T18:55:01.511Z,11.07
2017-09-03T18:57:40.090Z,11.08
2017-09-03T19:00:13.782Z,11.05
2017-09-03T19:02:41.764Z,11.04
2017-09-03T19:05:24.519Z,10.98
2017-09-03T19:07:53.866Z,11.06
2017-09-03T19:10:21.784Z,10.96
2017-09-03T19:12:49.657Z,10.97
2017-09-03T19:15:19.850Z,10.99
2017-09-03T19:17:49.083Z,10.97
2017-09-03T19:20:17.060Z,10.93
2017-09-03T19:22:44.926Z,10.97
2017-09-03T19:25:13.804Z,11.03
2017-09-03T19:27:41.665Z,11.05
2017-09-03T19:30:10.202Z,11.01
2017-09-03T19:32:38.134Z,11.01
2017-09-03T19:35:06.701Z,10.99
2017-09-03T19:37:44.694Z,10.99
2017-09-03T19:40:13.485Z,10.96
2017-09-03T19:42:42.725Z,10.96
2017-09-03T19:45:11.403Z,10.97
2017-09-03T19:47:39.221Z,10.97
2017-09-03T19:50:06.999Z,11.01
2017-09-03T19:52:35.233Z,11.06
2017-09-03T19:55:03.735Z,11.11
2017-09-03T19:57:31.451Z,11.09
2017-09-03T20:00:00.374Z,11.09
2017-09-03T20:02:28.310Z,11.12
2017-09-03T20:04:56.917Z,11.11
2017-09-03T20:07:26.545Z,11.03
2017-09-03T20:09:55.506Z,10.96
2017-09-03T20:12:27.117Z,10.97
2017-09-03T20:14:54.847Z,10.98
2017-09-03T20:17:22.736Z,10.97
2017-09-03T20:19:50.571Z,10.95
2017-09-03T20:22:18.336Z,11.03
2017-09-03T20:24:46.114Z,11.01
2017-09-03T20:27:13.829Z,10.88
2017-09-03T20:29:41.598Z,10.86
2017-09-03T20:32:09.308Z,10.86
2017-09-03T20:34:37.067Z,10.92
2017-09-03T20:37:04.863Z,10.90
2017-09-03T20:39:32.674Z,10.85
2017-09-03T20:42:01.229Z,10.82
2017-09-03T20:44:28.993Z,10.86
2017-09-03T20:46:56.889Z,10.85
2017-09-03T20:49:25.622Z,10.86
2017-09-03T20:51:53.315Z,10.86
2017-09-03T20:54:21.691Z,10.80
2017-09-03T20:56:49.509Z,10.86
2017-09-03T20:59:18.177Z,10.85
2017-09-03T21:01:45.934Z,10.82
2017-09-03T21:04:13.717Z,10.83
2017-09-03T21:06:41.667Z,10.84
2017-09-03T21:09:11.219Z,10.88
2017-09-03T21:11:39.002Z,10.89
2017-09-03T21:14:06.745Z,10.87
2017-09-03T21:16:34.527Z,10.91
2017-09-03T21:19:03.320Z,10.87
2017-09-03T21:21:32.023Z,10.82
2017-09-03T21:23:59.952Z,10.86
2017-09-03T21:53:39.897Z,10.82
2017-09-03T21:56:07.625Z,10.83
2017-09-03T21:58:36.231Z,10.85
2017-09-03T22:01:03.978Z,10.89
2017-09-03T22:03:33.073Z,10.82
2017-09-03T22:06:03.616Z,10.80
2017-09-03T22:08:31.430Z,10.79
2017-09-03T22:10:59.711Z,10.82
2017-09-03T22:13:28.277Z,10.82
2017-09-03T22:15:57.233Z,10.79
2017-09-03T22:18:25.238Z,10.84
2017-09-03T22:20:55.991Z,10.82
2017-09-03T22:23:25.540Z,10.82
2017-09-03T22:25:54.361Z,10.79
2017-09-03T22:28:22.084Z,10.75
2017-09-03T22:30:49.871Z,10.72
2017-09-03T22:33:17.562Z,10.72
2017-09-03T22:35:45.276Z,10.64
2017-09-03T22:38:13.033Z,10.63
2017-09-03T22:40:40.850Z,10.55
2017-09-03T22:43:08.583Z,10.51
2017-09-03T22:45:36.423Z,10.51
2017-09-03T22:48:04.208Z,10.46
2017-09-03T22:50:31.967Z,10.43
2017-09-03T22:52:59.730Z,10.39
2017-09-03T22:55:28.276Z,10.35
2017-09-03T22:57:55.987Z,10.08
2017-09-03T23:00:23.759Z,10.06
2017-09-03T23:02:51.622Z,10.24
2017-09-03T23:05:19.325Z,10.15
2017-09-03T23:07:47.022Z,10.19
2017-09-03T23:10:14.764Z,10.20
2017-09-03T23:12:42.514Z,10.23
2017-09-03T23:15:10.187Z,10.18
2017-09-03T23:17:37.975Z,10.08
2017-09-03T23:20:05.682Z,10.02
2017-09-03T23:22:35.281Z,10.03
2017-09-03T23:25:03.035Z,9.98
2017-09-03T23:27:30.791Z,9.98
2017-09-03T23:29:58.502Z,9.89
2017-09-03T23:32:26.266Z,9.87
2017-09-03T23:34:54.633Z,9.78
2017-09-03T23:37:23.253Z,9.73
2017-09-03T23:39:51.044Z,9.77
2017-09-03T23:42:18.772Z,9.81
2017-09-03T23:44:46.503Z,9.80
2017-09-03T23:47:14.247Z,9.77
2017-09-03T23:49:42.021Z,9.83
2017-09-03T23:52:10.461Z,9.86
2017-09-03T23:54:38.288Z,9.79
2017-09-03T23:57:06.007Z,9.82
2017-09-03T23:59:34.028Z,9.70
